Time;durP1;ratioP1;P1;durP2;ratioP2;P2;SDS_P1;SDS_P2;PMS_P1;PMS_P2;Temp;Humidity;BMP_temperature;BMP_pressure;BME280_temperature;BME280_humidity;BME280_pressure;Samples;Min_cycle;Max_cycle;Signal;HPM_P1;HPM_P2
2021/10/04 00:00:14;;;;;;;1.40;1.10;;;16.10;99.90;;;;;;5033319;28;20571;-57
2021/10/04 00:02:39;;;;;;;1.10;1.00;;;16.20;99.90;;;;;;5035044;28;20201;-55
2021/10/04 00:05:06;;;;;;;1.53;1.10;;;16.30;99.90;;;;;;5035297;28;20475;-57
2021/10/04 00:07:31;;;;;;;1.40;1.30;;;16.30;99.90;;;;;;5035320;28;20224;-58
2021/10/04 00:09:57;;;;;;;1.70;1.20;;;16.30;99.90;;;;;;5033218;28;20453;-56
2021/10/04 00:12:23;;;;;;;2.07;1.23;;;16.40;99.90;;;;;;5035109;28;20174;-57
2021/10/04 00:14:48;;;;;;;2.27;1.40;;;16.40;99.90;;;;;;5033114;28;20180;-57
2021/10/04 00:17:14;;;;;;;1.30;1.17;;;16.30;99.90;;;;;;5035038;28;20203;-58
2021/10/04 00:19:40;;;;;;;1.93;1.40;;;16.40;99.90;;;;;;5033662;28;20266;-56
2021/10/04 00:22:06;;;;;;;2.13;1.30;;;16.40;99.90;;;;;;5034433;28;20200;-58
2021/10/04 00:24:32;;;;;;;1.03;0.93;;;16.40;99.90;;;;;;5016167;28;20417;-55
2021/10/04 00:26:57;;;;;;;1.77;1.20;;;16.30;99.90;;;;;;5014648;28;20413;-57
2021/10/04 00:29:23;;;;;;;2.70;1.50;;;16.30;99.90;;;;;;5014674;28;20259;-57
2021/10/04 00:31:49;;;;;;;2.30;1.63;;;16.30;99.90;;;;;;5025943;28;20187;-55
2021/10/04 00:34:15;;;;;;;1.80;1.20;;;16.30;99.90;;;;;;5034582;28;20219;-57
2021/10/04 00:36:40;;;;;;;1.50;0.93;;;16.20;99.90;;;;;;5032632;28;20598;-57
2021/10/04 00:39:06;;;;;;;1.33;1.23;;;16.10;99.90;;;;;;5034332;28;20194;-57
2021/10/04 00:41:32;;;;;;;1.40;1.27;;;16.10;99.90;;;;;;5019104;28;20186;-57
2021/10/04 00:43:58;;;;;;;1.33;1.07;;;16.10;99.90;;;;;;5014181;28;20450;-56
2021/10/04 00:46:25;;;;;;;1.40;1.10;;;16.00;99.90;;;;;;5023033;28;20932;-56
2021/10/04 00:48:51;;;;;;;1.20;1.10;;;16.10;99.90;;;;;;5034661;28;20188;-56
2021/10/04 00:51:20;;;;;;;1.30;1.00;;;16.10;99.90;;;;;;5034178;28;20822;-57
2021/10/04 00:53:48;;;;;;;1.37;1.20;;;16.10;99.90;;;;;;5032738;28;20239;-57
2021/10/04 00:56:14;;;;;;;1.47;1.37;;;16.10;99.90;;;;;;5034273;28;20439;-56
2021/10/04 00:58:40;;;;;;;2.20;1.27;;;16.30;99.90;;;;;;5032521;28;20490;-58
2021/10/04 01:01:06;;;;;;;1.97;1.37;;;16.40;99.90;;;;;;5033802;28;20817;-57
2021/10/04 01:03:31;;;;;;;1.73;1.40;;;16.40;99.90;;;;;;5033793;28;20227;-57
2021/10/04 01:05:57;;;;;;;1.30;1.20;;;16.40;99.90;;;;;;5034136;28;20184;-56
2021/10/04 01:08:23;;;;;;;0.87;0.80;;;16.30;99.90;;;;;;5031919;28;20243;-56
2021/10/04 01:10:49;;;;;;;1.70;1.30;;;16.30;99.90;;;;;;5033815;28;20906;-57
2021/10/04 01:13:16;;;;;;;1.13;1.03;;;16.30;99.90;;;;;;5033797;28;20169;-57
2021/10/04 01:15:42;;;;;;;1.20;1.10;;;16.30;99.90;;;;;;5032098;28;20640;-56
2021/10/04 01:18:07;;;;;;;1.37;1.27;;;16.40;99.90;;;;;;5033986;28;20407;-55
2021/10/04 01:20:33;;;;;;;2.03;1.10;;;16.20;99.90;;;;;;5033769;28;20981;-55
2021/10/04 01:22:59;;;;;;;1.50;1.37;;;16.20;99.90;;;;;;5033662;28;20539;-58
2021/10/04 01:25:25;;;;;;;0.97;0.70;;;16.40;99.90;;;;;;5033808;28;20489;-57
2021/10/04 01:27:51;;;;;;;1.53;1.30;;;16.50;99.90;;;;;;5032162;28;20218;-57
2021/10/04 01:30:18;;;;;;;1.23;1.10;;;16.50;99.90;;;;;;5033097;28;20200;-57
2021/10/04 01:32:45;;;;;;;1.20;1.10;;;16.60;99.90;;;;;;5033766;28;20606;-57
2021/10/04 01:35:11;;;;;;;2.17;1.20;;;16.60;99.90;;;;;;5033954;28;20396;-57
2021/10/04 01:37:38;;;;;;;1.30;1.20;;;16.60;99.90;;;;;;5033922;28;20866;-56
2021/10/04 01:40:06;;;;;;;1.20;1.10;;;16.70;99.90;;;;;;5002180;28;20479;-57
2021/10/04 01:42:32;;;;;;;1.40;1.10;;;16.40;99.90;;;;;;5011662;28;20869;-58
2021/10/04 01:44:58;;;;;;;1.20;1.03;;;16.50;99.90;;;;;;5023432;28;20406;-58
2021/10/04 01:47:24;;;;;;;0.80;0.70;;;16.40;99.90;;;;;;5013989;28;20412;-58
2021/10/04 01:49:49;;;;;;;1.23;0.93;;;16.20;99.90;;;;;;5013601;28;20433;-56
2021/10/04 01:52:15;;;;;;;1.30;1.20;;;16.00;99.90;;;;;;5016261;28;20586;-57
2021/10/04 01:54:41;;;;;;;1.67;0.70;;;16.00;99.90;;;;;;5034039;28;20254;-56
2021/10/04 01:57:08;;;;;;;3.10;0.90;;;16.10;99.90;;;;;;5027646;28;20180;-56
2021/10/04 01:59:34;;;;;;;1.10;0.97;;;16.00;99.90;;;;;;5017611;28;20437;-57
2021/10/04 02:02:00;;;;;;;1.17;0.73;;;16.00;99.90;;;;;;5033396;28;20429;-56
2021/10/04 02:04:25;;;;;;;1.10;1.00;;;15.90;99.90;;;;;;5037755;28;20465;-57
2021/10/04 02:06:51;;;;;;;1.37;0.93;;;15.90;99.90;;;;;;5037950;28;20168;-55
2021/10/04 02:09:18;;;;;;;1.00;0.80;;;15.80;99.90;;;;;;5035686;28;20267;-58
2021/10/04 02:11:44;;;;;;;1.40;0.90;;;15.70;99.90;;;;;;5037604;28;20298;-55
2021/10/04 02:14:10;;;;;;;1.00;0.70;;;15.60;99.90;;;;;;5035826;28;20518;-55
2021/10/04 02:16:36;;;;;;;0.80;0.80;;;15.50;99.90;;;;;;5037375;28;21028;-57
2021/10/04 02:19:01;;;;;;;1.77;0.90;;;15.50;99.90;;;;;;5036353;28;20198;-57
2021/10/04 02:21:27;;;;;;;1.30;0.90;;;15.70;99.90;;;;;;5037921;28;20162;-57
2021/10/04 02:23:53;;;;;;;1.13;0.90;;;15.80;99.90;;;;;;5038928;28;20192;-55
2021/10/04 02:26:18;;;;;;;0.90;0.87;;;15.90;99.90;;;;;;5033857;28;20171;-57
2021/10/04 02:28:44;;;;;;;1.13;1.00;;;15.90;99.90;;;;;;5053897;22;22444;-56
2021/10/04 02:31:09;;;;;;;1.20;0.97;;;15.90;99.90;;;;;;5074999;28;20250;-55
2021/10/04 02:33:35;;;;;;;1.17;0.93;;;15.80;99.90;;;;;;5074352;28;20211;-56
2021/10/04 02:36:01;;;;;;;1.73;1.20;;;15.70;99.90;;;;;;5074668;28;20223;-55
2021/10/04 02:38:26;;;;;;;1.17;0.90;;;15.60;99.90;;;;;;5076573;28;20635;-56
2021/10/04 02:40:52;;;;;;;1.30;1.10;;;15.70;99.90;;;;;;5074624;28;20175;-54
2021/10/04 02:43:18;;;;;;;1.23;1.07;;;15.80;99.90;;;;;;5075829;28;20607;-55
2021/10/04 02:45:48;;;;;;;1.53;1.33;;;15.80;99.90;;;;;;5075125;28;20164;-56
2021/10/04 02:48:14;;;;;;;1.90;1.30;;;15.80;99.90;;;;;;5075877;28;20402;-56
2021/10/04 02:50:40;;;;;;;1.10;0.80;;;15.60;99.90;;;;;;5074816;28;20421;-57
2021/10/04 02:53:06;;;;;;;1.20;1.10;;;15.60;99.90;;;;;;5076524;28;20412;-54
2021/10/04 02:55:31;;;;;;;1.10;1.00;;;15.40;99.90;;;;;;5075627;28;20205;-53
2021/10/04 02:57:57;;;;;;;6.67;1.47;;;15.30;99.90;;;;;;5074594;28;20173;-52
2021/10/04 03:00:23;;;;;;;0.90;0.80;;;15.30;99.90;;;;;;5075538;28;20679;-51
2021/10/04 03:02:48;;;;;;;2.30;0.90;;;15.30;99.90;;;;;;5075515;28;20212;-59
2021/10/04 03:05:14;;;;;;;1.10;0.87;;;15.20;99.90;;;;;;5075221;28;20555;-55
2021/10/04 03:07:40;;;;;;;1.80;1.00;;;15.20;99.90;;;;;;5074931;28;20252;-56
2021/10/04 03:10:06;;;;;;;1.37;0.90;;;15.20;99.90;;;;;;5074307;28;20196;-58
2021/10/04 03:12:32;;;;;;;1.23;1.00;;;15.40;99.90;;;;;;5075992;28;20185;-57
2021/10/04 03:14:59;;;;;;;1.00;0.70;;;15.20;99.90;;;;;;5073831;28;20510;-53
2021/10/04 03:17:24;;;;;;;1.90;0.97;;;15.30;99.90;;;;;;5075500;28;20181;-53
2021/10/04 03:19:50;;;;;;;1.67;1.10;;;15.40;99.90;;;;;;5075441;28;20426;-52
2021/10/04 03:22:16;;;;;;;1.37;1.13;;;15.40;99.90;;;;;;5074055;28;20198;-53
2021/10/04 03:24:41;;;;;;;1.10;1.00;;;15.50;99.90;;;;;;5075380;28;20511;-55
2021/10/04 03:27:07;;;;;;;1.30;0.90;;;15.40;99.90;;;;;;5074244;28;20169;-60
2021/10/04 03:29:33;;;;;;;1.00;0.90;;;15.40;99.90;;;;;;5074161;28;20580;-56
2021/10/04 03:31:59;;;;;;;1.20;0.90;;;15.30;99.90;;;;;;5073716;28;20449;-57
2021/10/04 03:34:25;;;;;;;1.60;1.00;;;15.40;99.90;;;;;;5059037;28;20415;-57
2021/10/04 03:36:51;;;;;;;1.00;0.90;;;15.40;99.90;;;;;;5055904;28;20433;-58
2021/10/04 03:39:17;;;;;;;1.73;1.20;;;15.50;99.90;;;;;;5055610;28;20218;-56
2021/10/04 03:41:43;;;;;;;1.07;0.80;;;15.50;99.90;;;;;;5058243;28;20417;-54
2021/10/04 03:44:09;;;;;;;1.57;0.90;;;15.50;99.90;;;;;;5075791;28;20807;-53
2021/10/04 03:46:35;;;;;;;1.10;0.83;;;15.40;99.90;;;;;;5073478;28;20176;-55
2021/10/04 03:49:00;;;;;;;1.93;1.10;;;15.40;99.90;;;;;;5075078;28;20590;-56
2021/10/04 03:51:30;;;;;;;1.23;1.10;;;15.50;99.90;;;;;;5074118;28;20541;-54
2021/10/04 03:53:55;;;;;;;1.10;0.90;;;15.50;99.90;;;;;;5075027;28;20229;-57
2021/10/04 03:56:23;;;;;;;1.00;0.90;;;15.40;99.90;;;;;;5074883;28;20502;-57
2021/10/04 03:58:48;;;;;;;1.50;0.90;;;15.40;99.90;;;;;;5073326;28;20209;-53
2021/10/04 04:01:14;;;;;;;1.00;0.90;;;15.50;99.90;;;;;;5074504;28;20406;-55
2021/10/04 04:03:39;;;;;;;1.40;0.90;;;15.50;99.90;;;;;;5073688;28;20190;-54
2021/10/04 04:06:05;;;;;;;1.40;1.00;;;15.30;99.90;;;;;;5074123;28;20605;-56
2021/10/04 04:08:33;;;;;;;0.80;0.77;;;15.40;99.90;;;;;;5074911;28;20176;-56
2021/10/04 04:11:00;;;;;;;1.00;0.80;;;15.30;99.90;;;;;;5072946;28;20172;-55
2021/10/04 04:13:26;;;;;;;1.10;0.80;;;15.30;99.90;;;;;;5074556;28;20408;-56
2021/10/04 04:15:51;;;;;;;3.23;1.03;;;15.20;99.90;;;;;;5072823;28;20791;-54
2021/10/04 04:18:17;;;;;;;1.03;0.87;;;15.30;99.90;;;;;;5073639;28;20168;-53
2021/10/04 04:20:43;;;;;;;4.70;0.87;;;15.30;99.90;;;;;;5073281;28;20658;-50
2021/10/04 04:23:08;;;;;;;0.80;0.70;;;15.30;99.90;;;;;;5074335;28;20267;-52
2021/10/04 04:25:34;;;;;;;1.00;0.87;;;15.30;99.90;;;;;;5074634;28;20592;-50
2021/10/04 04:28:00;;;;;;;1.10;0.80;;;15.30;99.90;;;;;;5066922;28;20185;-54
2021/10/04 04:30:27;;;;;;;1.07;0.80;;;15.30;99.90;;;;;;5034261;28;20690;-56
2021/10/04 04:32:53;;;;;;;2.70;1.00;;;15.30;99.90;;;;;;5051001;28;20460;-52
2021/10/04 04:35:19;;;;;;;1.07;0.90;;;15.30;99.90;;;;;;5058541;28;20457;-56
2021/10/04 04:37:45;;;;;;;1.30;0.80;;;15.30;99.90;;;;;;5063638;28;20491;-54
2021/10/04 04:40:13;;;;;;;1.40;1.00;;;15.30;99.90;;;;;;5054395;28;20510;-55
2021/10/04 04:42:42;;;;;;;0.83;0.70;;;15.30;99.90;;;;;;5053922;28;20524;-55
2021/10/04 04:45:11;;;;;;;0.90;0.70;;;15.40;99.90;;;;;;5054443;28;20451;-54
2021/10/04 04:47:37;;;;;;;0.90;0.60;;;15.40;99.90;;;;;;5054079;28;20819;-56
2021/10/04 04:50:04;;;;;;;0.70;0.50;;;15.40;99.90;;;;;;5060734;28;20447;-53
2021/10/04 04:52:29;;;;;;;1.03;0.70;;;15.40;99.90;;;;;;5054152;28;20430;-57
2021/10/04 04:54:55;;;;;;;0.80;0.70;;;15.40;99.90;;;;;;5061888;28;20419;-56
2021/10/04 04:57:21;;;;;;;1.00;0.90;;;15.40;99.90;;;;;;5073574;28;20174;-57
2021/10/04 04:59:47;;;;;;;0.97;0.80;;;15.40;99.90;;;;;;5073694;28;20817;-56
2021/10/04 05:02:12;;;;;;;1.47;0.70;;;15.50;99.90;;;;;;5071826;28;20181;-57
2021/10/04 05:04:38;;;;;;;1.70;1.00;;;15.40;99.90;;;;;;5073603;28;20157;-56
2021/10/04 05:07:04;;;;;;;1.10;0.90;;;15.50;99.90;;;;;;5072601;28;20878;-59
2021/10/04 05:09:30;;;;;;;1.50;1.20;;;15.40;99.90;;;;;;5073007;28;20181;-53
2021/10/04 05:11:55;;;;;;;0.80;0.70;;;15.50;99.90;;;;;;5073420;28;20414;-58
2021/10/04 05:14:21;;;;;;;1.23;1.13;;;15.40;99.90;;;;;;5072324;28;20215;-54
2021/10/04 05:16:46;;;;;;;0.90;0.80;;;15.40;99.90;;;;;;5075117;28;20557;-56
2021/10/04 05:19:13;;;;;;;1.00;0.90;;;15.40;99.90;;;;;;5073409;28;20190;-55
2021/10/04 05:21:39;;;;;;;1.10;0.90;;;15.40;99.90;;;;;;5071801;28;20585;-54
2021/10/04 05:24:05;;;;;;;1.37;0.80;;;15.40;99.90;;;;;;5073320;28;20450;-52
2021/10/04 05:26:31;;;;;;;1.03;0.80;;;15.40;99.90;;;;;;5062746;28;20167;-52
2021/10/04 05:28:57;;;;;;;1.50;1.13;;;15.40;99.90;;;;;;5052857;28;20505;-56
2021/10/04 05:31:22;;;;;;;7.00;1.40;;;15.30;99.90;;;;;;5056239;28;20175;-51
2021/10/04 05:33:48;;;;;;;1.50;0.90;;;15.30;99.90;;;;;;5072813;28;20169;-53
2021/10/04 05:36:13;;;;;;;1.33;1.23;;;15.30;99.90;;;;;;5072859;28;20519;-55
2021/10/04 05:38:39;;;;;;;1.30;1.20;;;15.20;99.90;;;;;;5070912;28;20176;-52
2021/10/04 05:41:05;;;;;;;1.73;1.47;;;15.10;99.90;;;;;;5072742;28;20215;-54
2021/10/04 05:43:34;;;;;;;1.57;1.37;;;15.10;99.90;;;;;;5072727;28;20192;-51
2021/10/04 05:46:01;;;;;;;2.30;1.30;;;15.00;99.90;;;;;;5071412;28;20421;-53
2021/10/04 05:48:26;;;;;;;3.57;1.90;;;15.00;99.90;;;;;;5073249;28;20397;-57
2021/10/04 05:50:52;;;;;;;1.43;1.03;;;15.00;99.90;;;;;;5071628;28;20954;-51
2021/10/04 05:53:18;;;;;;;1.53;1.20;;;15.00;99.90;;;;;;5073156;28;20287;-52
2021/10/04 05:55:45;;;;;;;2.23;1.70;;;15.10;99.90;;;;;;5071109;28;20656;-55
2021/10/04 05:58:11;;;;;;;4.30;1.47;;;15.00;99.90;;;;;;5072961;28;20640;-53
2021/10/04 06:00:37;;;;;;;2.50;1.27;;;15.10;99.90;;;;;;5073015;28;20450;-56
2021/10/04 06:03:03;;;;;;;2.30;1.30;;;15.10;99.90;;;;;;5072934;28;20209;-57
2021/10/04 06:05:29;;;;;;;1.60;1.50;;;15.10;99.90;;;;;;5071421;28;20412;-55
2021/10/04 06:07:54;;;;;;;2.20;1.33;;;15.00;99.90;;;;;;5073403;28;20167;-56
2021/10/04 06:10:20;;;;;;;2.53;1.57;;;15.10;99.90;;;;;;5072763;28;20200;-55
2021/10/04 06:12:46;;;;;;;3.03;1.60;;;15.10;99.90;;;;;;5072579;28;20690;-57
2021/10/04 06:15:13;;;;;;;7.40;2.33;;;15.20;99.90;;;;;;5072711;28;20403;-53
2021/10/04 06:17:39;;;;;;;1.70;1.40;;;15.20;99.90;;;;;;5072957;28;20207;-52
2021/10/04 06:20:06;;;;;;;2.20;1.20;;;15.30;99.90;;;;;;5070464;28;20444;-56
2021/10/04 06:22:31;;;;;;;1.50;1.37;;;15.30;99.90;;;;;;5073004;28;20568;-50
2021/10/04 06:24:57;;;;;;;1.27;1.17;;;15.30;99.90;;;;;;5072661;28;20425;-51
2021/10/04 06:27:22;;;;;;;5.03;1.83;;;15.30;99.90;;;;;;5065713;28;20224;-49
2021/10/04 06:29:48;;;;;;;1.80;1.70;;;15.40;99.90;;;;;;5072602;28;20704;-51
2021/10/04 06:32:14;;;;;;;2.43;1.70;;;15.30;99.90;;;;;;5050177;28;20197;-51
2021/10/04 06:34:40;;;;;;;1.73;1.60;;;15.30;99.90;;;;;;5032984;28;20181;-56
2021/10/04 06:37:06;;;;;;;2.27;1.43;;;15.30;99.90;;;;;;5048545;28;20174;-53
2021/10/04 06:39:31;;;;;;;3.70;1.50;;;15.40;99.90;;;;;;5072321;28;20813;-56
2021/10/04 06:41:57;;;;;;;1.50;1.33;;;15.50;99.90;;;;;;5073484;28;20320;-57
2021/10/04 06:44:23;;;;;;;1.77;1.60;;;15.40;99.90;;;;;;5074608;28;20209;-53
2021/10/04 06:46:48;;;;;;;2.67;1.60;;;15.40;99.90;;;;;;5075710;28;20168;-53
2021/10/04 06:49:14;;;;;;;1.73;1.50;;;15.50;99.90;;;;;;5075929;28;20279;-55
2021/10/04 06:51:40;;;;;;;2.60;1.47;;;15.60;99.90;;;;;;5074507;28;20207;-57
2021/10/04 06:54:05;;;;;;;1.50;1.40;;;15.60;99.90;;;;;;5076102;28;20170;-52
2021/10/04 06:56:31;;;;;;;1.90;1.20;;;15.70;99.90;;;;;;5074973;28;20183;-56
2021/10/04 06:58:57;;;;;;;4.20;1.37;;;15.70;99.90;;;;;;5075695;28;20271;-56
2021/10/04 07:01:23;;;;;;;2.40;1.30;;;15.70;99.90;;;;;;5075833;28;20445;-56
2021/10/04 07:03:49;;;;;;;2.30;2.00;;;15.70;99.90;;;;;;5074140;28;20500;-54
2021/10/04 07:06:15;;;;;;;2.50;1.70;;;15.60;99.90;;;;;;5076145;28;20172;-54
2021/10/04 07:08:40;;;;;;;2.77;1.60;;;15.50;99.90;;;;;;5074018;28;20638;-55
2021/10/04 07:11:06;;;;;;;2.67;2.13;;;15.40;99.90;;;;;;5076592;28;20184;-56
2021/10/04 07:13:32;;;;;;;2.10;1.90;;;15.40;99.90;;;;;;5075583;28;20172;-56
2021/10/04 07:15:57;;;;;;;2.77;2.33;;;15.50;99.90;;;;;;5074180;28;20179;-57
2021/10/04 07:18:23;;;;;;;2.27;2.00;;;15.50;99.90;;;;;;5075473;28;20486;-57
2021/10/04 07:20:49;;;;;;;2.63;1.57;;;15.40;99.90;;;;;;5073688;28;20182;-55
2021/10/04 07:23:17;;;;;;;2.63;2.00;;;15.40;99.90;;;;;;5075777;28;20210;-54
2021/10/04 07:25:43;;;;;;;3.63;2.30;;;15.40;99.90;;;;;;5054081;28;20499;-53
2021/10/04 07:28:08;;;;;;;2.93;2.10;;;15.50;99.90;;;;;;5055733;28;20424;-53
2021/10/04 07:30:34;;;;;;;3.50;2.20;;;15.60;99.90;;;;;;5056091;28;20951;-54
2021/10/04 07:33:02;;;;;;;3.13;2.47;;;15.20;99.90;;;;;;5055327;28;20176;-55
2021/10/04 07:35:28;;;;;;;2.47;2.27;;;15.30;99.90;;;;;;5055418;28;20411;-57
2021/10/04 07:37:54;;;;;;;3.53;2.40;;;15.50;99.90;;;;;;5055584;28;20408;-52
2021/10/04 07:40:22;;;;;;;3.90;3.00;;;15.60;99.90;;;;;;5069077;28;20558;-56
2021/10/04 07:42:48;;;;;;;4.73;3.77;;;15.80;99.90;;;;;;5064974;28;20452;-56
2021/10/04 07:45:13;;;;;;;4.90;3.57;;;15.80;99.90;;;;;;5060957;28;20740;-56
2021/10/04 07:47:39;;;;;;;5.17;3.20;;;15.70;99.90;;;;;;5075096;28;20536;-53
2021/10/04 07:50:07;;;;;;;3.33;3.00;;;15.50;99.90;;;;;;5073084;28;20215;-54
2021/10/04 07:52:32;;;;;;;3.70;3.30;;;15.50;99.90;;;;;;5053970;28;20172;-56
2021/10/04 07:54:59;;;;;;;5.27;3.90;;;15.60;99.90;;;;;;5054794;28;20410;-58
2021/10/04 07:57:25;;;;;;;5.83;5.33;;;15.50;99.90;;;;;;5054783;28;20174;-57
2021/10/04 07:59:51;;;;;;;5.67;5.07;;;15.40;99.90;;;;;;5058908;28;20464;-57
2021/10/04 08:02:17;;;;;;;4.50;4.10;;;15.20;99.90;;;;;;5074784;28;20417;-56
2021/10/04 08:04:43;;;;;;;4.40;4.00;;;15.10;99.90;;;;;;5074655;28;20408;-59
2021/10/04 08:07:09;;;;;;;3.67;3.23;;;14.90;99.90;;;;;;5073401;28;20426;-51
2021/10/04 08:09:34;;;;;;;2.40;2.20;;;14.70;99.90;;;;;;5069124;28;20196;-55
2021/10/04 08:12:01;;;;;;;2.20;1.80;;;14.70;99.90;;;;;;5063292;28;20546;-51
2021/10/04 08:14:26;;;;;;;2.33;2.13;;;14.70;99.90;;;;;;5074702;28;20179;-53
2021/10/04 08:16:53;;;;;;;2.00;1.90;;;14.80;99.90;;;;;;5074373;28;20820;-55
2021/10/04 08:19:19;;;;;;;2.77;2.10;;;14.90;99.90;;;;;;5074342;28;20425;-52
2021/10/04 08:21:44;;;;;;;2.77;1.93;;;15.10;99.90;;;;;;5072775;28;20626;-55
2021/10/04 08:24:10;;;;;;;2.57;2.37;;;15.20;99.90;;;;;;5074422;28;20565;-57
2021/10/04 08:26:36;;;;;;;2.20;1.90;;;15.40;99.90;;;;;;5074440;28;20230;-55
2021/10/04 08:29:01;;;;;;;2.40;2.20;;;15.40;99.90;;;;;;5095363;23;20268;-54
2021/10/04 08:31:32;;;;;;;2.43;2.23;;;15.30;99.90;;;;;;5053174;28;20186;-57
2021/10/04 08:34:01;;;;;;;2.33;2.13;;;15.40;99.90;;;;;;5044652;28;20512;-53
2021/10/04 08:36:27;;;;;;;2.50;2.30;;;15.40;99.90;;;;;;5037003;28;20431;-57
2021/10/04 08:38:52;;;;;;;4.03;2.20;;;15.40;99.90;;;;;;5053642;28;20394;-54
2021/10/04 08:41:19;;;;;;;3.07;2.87;;;15.40;99.90;;;;;;5053509;28;21175;-57
2021/10/04 08:43:48;;;;;;;3.00;2.80;;;15.40;99.90;;;;;;5053881;28;20658;-57
2021/10/04 08:46:14;;;;;;;3.30;3.00;;;15.40;99.90;;;;;;5053502;28;20891;-52
2021/10/04 08:48:40;;;;;;;3.00;2.70;;;15.30;99.90;;;;;;5053326;28;20406;-56
2021/10/04 08:51:08;;;;;;;3.90;2.33;;;15.40;99.90;;;;;;5053461;28;20184;-55
2021/10/04 08:53:34;;;;;;;2.83;2.50;;;15.60;99.90;;;;;;5033646;28;20461;-52
2021/10/04 08:56:00;;;;;;;2.77;2.57;;;15.50;99.90;;;;;;5034356;28;20836;-50
2021/10/04 08:58:25;;;;;;;3.63;2.97;;;15.40;99.90;;;;;;5050758;28;20184;-53
2021/10/04 09:00:51;;;;;;;3.27;2.70;;;15.40;99.90;;;;;;5054018;28;20246;-55
2021/10/04 09:03:17;;;;;;;3.33;3.10;;;15.40;99.90;;;;;;5053923;28;20708;-56
2021/10/04 09:05:44;;;;;;;2.93;2.60;;;15.40;99.90;;;;;;5053165;28;20168;-54
2021/10/04 09:08:12;;;;;;;3.97;2.43;;;15.40;99.90;;;;;;5053395;28;20211;-57
2021/10/04 09:10:41;;;;;;;3.60;3.13;;;15.50;99.90;;;;;;5053624;28;20425;-55
2021/10/04 09:13:11;;;;;;;3.43;3.13;;;15.50;99.90;;;;;;5053611;28;20402;-55
2021/10/04 09:15:38;;;;;;;2.90;2.70;;;15.30;99.90;;;;;;5053539;28;20405;-55
2021/10/04 09:18:08;;;;;;;3.30;3.00;;;15.20;99.90;;;;;;5053681;28;20501;-54
2021/10/04 09:20:52;;;;;;;5.50;3.63;;;15.20;99.90;;;;;;5053528;28;20422;-53
2021/10/04 09:23:33;;;;;;;2.93;2.73;;;15.10;99.90;;;;;;5053096;28;20973;-56
2021/10/04 09:26:01;;;;;;;3.07;2.53;;;15.00;99.90;;;;;;5052188;28;20428;-52
2021/10/04 09:28:31;;;;;;;2.80;2.60;;;15.00;99.90;;;;;;5054244;28;20404;-49
2021/10/04 09:31:18;;;;;;;2.90;2.40;;;15.20;99.90;;;;;;5053577;28;20440;-51
2021/10/04 09:34:04;;;;;;;2.57;2.37;;;15.40;99.90;;;;;;5056831;28;20411;-56
2021/10/04 09:36:37;;;;;;;2.20;2.00;;;15.50;99.90;;;;;;5054917;28;20464;-56
2021/10/04 09:39:27;;;;;;;2.23;2.07;;;15.70;99.90;;;;;;5054375;28;20409;-50
2021/10/04 09:42:13;;;;;;;2.50;2.30;;;15.80;99.90;;;;;;5053549;28;20424;-53
2021/10/04 09:44:46;;;;;;;3.00;2.70;;;15.90;99.90;;;;;;5036244;28;20409;-55
2021/10/04 09:47:18;;;;;;;2.20;2.00;;;15.90;99.90;;;;;;5053366;28;20420;-57
2021/10/04 09:49:53;;;;;;;2.00;1.77;;;15.70;99.90;;;;;;5053497;28;20489;-53
2021/10/04 09:52:19;;;;;;;2.23;2.03;;;15.70;99.90;;;;;;5054875;28;20403;-52
2021/10/04 09:54:47;;;;;;;2.17;2.03;;;15.80;99.90;;;;;;5053329;28;20446;-56
2021/10/04 09:57:20;;;;;;;1.50;1.40;;;15.70;99.90;;;;;;5051874;28;20959;-56
2021/10/04 09:59:46;;;;;;;2.33;1.97;;;15.80;99.90;;;;;;5053392;28;20442;-58
2021/10/04 10:02:14;;;;;;;2.10;1.43;;;15.90;99.90;;;;;;5053527;28;20407;-58
2021/10/04 10:04:42;;;;;;;1.40;1.23;;;16.10;99.90;;;;;;5053394;28;20623;-57
2021/10/04 10:07:08;;;;;;;2.10;1.80;;;16.00;99.90;;;;;;5052966;28;20430;-53
2021/10/04 10:09:39;;;;;;;1.83;1.40;;;15.70;99.90;;;;;;5054456;28;20412;-54
2021/10/04 10:12:05;;;;;;;2.30;1.57;;;15.70;99.90;;;;;;5060368;28;20836;-58
2021/10/04 10:14:43;;;;;;;1.70;1.20;;;15.80;99.90;;;;;;5058285;28;20471;-53
2021/10/04 10:17:20;;;;;;;1.50;1.40;;;15.90;99.90;;;;;;5055843;28;20408;-55
2021/10/04 10:19:48;;;;;;;1.60;1.20;;;16.00;99.90;;;;;;5057846;28;20427;-55
2021/10/04 10:22:16;;;;;;;0.97;0.83;;;15.80;99.90;;;;;;5057886;28;20493;-57
2021/10/04 10:24:43;;;;;;;1.40;1.10;;;16.20;99.90;;;;;;5056882;28;20925;-53
2021/10/04 10:27:09;;;;;;;1.30;1.17;;;16.40;99.90;;;;;;5057767;28;20415;-57
2021/10/04 10:29:35;;;;;;;1.10;1.00;;;16.50;99.90;;;;;;5050824;28;20452;-57
2021/10/04 10:32:01;;;;;;;1.50;1.10;;;16.60;99.90;;;;;;5037143;28;20426;-58
2021/10/04 10:34:29;;;;;;;1.63;1.13;;;16.80;99.90;;;;;;5047755;28;20464;-55
2021/10/04 10:37:09;;;;;;;1.40;1.10;;;17.00;99.90;;;;;;5056795;28;20170;-57
2021/10/04 10:39:36;;;;;;;1.20;0.93;;;17.10;99.90;;;;;;5055396;28;20453;-57
2021/10/04 10:42:13;;;;;;;1.00;0.90;;;16.90;99.90;;;;;;5056413;28;20423;-58
2021/10/04 10:44:54;;;;;;;1.73;0.73;;;17.00;99.90;;;;;;5051637;28;20425;-57
2021/10/04 10:47:35;;;;;;;1.20;0.90;;;17.10;99.90;;;;;;5049825;28;21023;-58
2021/10/04 10:50:11;;;;;;;1.60;1.50;;;17.20;99.90;;;;;;5051574;28;20834;-57
2021/10/04 10:52:40;;;;;;;1.57;0.90;;;17.50;99.90;;;;;;5036383;28;20417;-58
2021/10/04 10:55:20;;;;;;;1.67;1.10;;;17.80;99.90;;;;;;5048218;28;20499;-57
2021/10/04 10:57:50;;;;;;;1.60;1.10;;;17.80;99.90;;;;;;5055975;28;20935;-58
2021/10/04 11:00:17;;;;;;;3.50;1.10;;;17.50;99.90;;;;;;5054866;28;20451;-58
2021/10/04 11:02:59;;;;;;;1.50;1.00;;;17.40;99.90;;;;;;5055827;28;20792;-55
2021/10/04 11:05:43;;;;;;;1.20;1.10;;;17.30;99.90;;;;;;5056724;28;20409;-52
2021/10/04 11:08:10;;;;;;;1.30;0.80;;;17.20;99.90;;;;;;5054780;28;20481;-58
2021/10/04 11:10:56;;;;;;;1.07;0.97;;;16.90;99.90;;;;;;5056132;28;20787;-57
2021/10/04 11:13:28;;;;;;;1.03;0.93;;;17.10;99.90;;;;;;5055964;28;20413;-56
2021/10/04 11:16:00;;;;;;;0.93;0.70;;;16.90;99.90;;;;;;5054579;28;20498;-56
2021/10/04 11:18:42;;;;;;;1.37;0.80;;;17.00;99.90;;;;;;5055984;28;20476;-56
2021/10/04 11:21:11;;;;;;;1.00;0.77;;;17.30;99.90;;;;;;5054460;28;20808;-56
2021/10/04 11:23:42;;;;;;;1.23;1.10;;;17.40;99.90;;;;;;5021514;28;20463;-57
2021/10/04 11:26:12;;;;;;;2.23;0.93;;;17.70;99.90;;;;;;5053301;28;20459;-58
2021/10/04 11:28:40;;;;;;;2.30;0.80;;;17.80;99.90;;;;;;5055197;28;20433;-53
2021/10/04 11:31:07;;;;;;;1.60;0.70;;;17.70;99.90;;;;;;5054688;28;20651;-57
2021/10/04 11:33:36;;;;;;;0.97;0.60;;;17.40;99.90;;;;;;5055293;28;20448;-56
2021/10/04 11:36:05;;;;;;;1.17;0.60;;;17.60;99.90;;;;;;5055521;28;20415;-57
2021/10/04 11:38:34;;;;;;;1.00;0.63;;;17.60;99.90;;;;;;5055330;28;20773;-58
2021/10/04 11:41:00;;;;;;;0.90;0.70;;;17.40;99.90;;;;;;5055567;28;20773;-57
2021/10/04 11:43:28;;;;;;;1.23;0.63;;;17.30;99.90;;;;;;5055860;28;20459;-57
2021/10/04 11:45:54;;;;;;;2.20;0.70;;;17.50;99.90;;;;;;5055493;28;20467;-58
2021/10/04 11:48:31;;;;;;;1.00;0.83;;;17.40;99.90;;;;;;5054896;28;20405;-57
2021/10/04 11:50:59;;;;;;;1.23;0.80;;;17.70;99.90;;;;;;5054079;28;20440;-56
2021/10/04 11:53:26;;;;;;;0.87;0.77;;;17.70;99.90;;;;;;5055123;28;20492;-58
2021/10/04 11:56:00;;;;;;;1.00;0.70;;;17.40;99.90;;;;;;5055668;28;20409;-56
2021/10/04 11:58:26;;;;;;;1.00;0.80;;;17.30;99.90;;;;;;5055757;28;20924;-57
2021/10/04 12:00:52;;;;;;;0.90;0.70;;;17.30;99.90;;;;;;5053422;28;20444;-57
2021/10/04 12:03:28;;;;;;;1.20;0.87;;;17.40;99.90;;;;;;5055056;28;21018;-57
2021/10/04 12:05:55;;;;;;;1.77;0.77;;;17.40;99.90;;;;;;5054905;28;20249;-58
2021/10/04 12:08:21;;;;;;;2.87;0.83;;;17.50;99.90;;;;;;5054145;28;20425;-57
2021/10/04 12:10:54;;;;;;;1.10;0.80;;;17.40;99.90;;;;;;5054984;28;20421;-56
2021/10/04 12:13:22;;;;;;;2.47;1.10;;;17.50;99.90;;;;;;5055198;28;20437;-56
2021/10/04 12:15:50;;;;;;;1.10;1.00;;;17.30;99.90;;;;;;5053355;28;21079;-58
2021/10/04 12:18:21;;;;;;;1.97;1.53;;;17.20;99.90;;;;;;5055076;28;20926;-57
2021/10/04 12:21:10;;;;;;;2.27;1.97;;;17.30;99.90;;;;;;5054864;28;20521;-56
2021/10/04 12:23:36;;;;;;;2.77;1.70;;;17.30;99.90;;;;;;5037115;28;20462;-56
2021/10/04 12:26:07;;;;;;;2.10;1.90;;;17.30;99.90;;;;;;5050333;28;20773;-57
2021/10/04 12:28:46;;;;;;;1.53;1.43;;;17.40;99.90;;;;;;5034374;28;20158;-58
2021/10/04 12:31:30;;;;;;;1.30;1.20;;;17.60;99.90;;;;;;5034173;28;20817;-56
2021/10/04 12:33:55;;;;;;;1.67;1.53;;;17.50;99.90;;;;;;5034066;28;20832;-57
2021/10/04 12:36:23;;;;;;;1.83;1.30;;;17.60;99.90;;;;;;5039037;28;20445;-58
2021/10/04 12:38:53;;;;;;;2.43;1.17;;;17.80;99.90;;;;;;5039557;28;20198;-57
2021/10/04 12:41:19;;;;;;;1.63;1.00;;;17.80;99.90;;;;;;5053885;28;20803;-57
2021/10/04 12:43:46;;;;;;;0.80;0.80;;;17.60;99.90;;;;;;5053979;28;20493;-58
2021/10/04 12:46:18;;;;;;;1.27;0.90;;;17.30;99.90;;;;;;5052822;28;20612;-58
2021/10/04 12:48:47;;;;;;;1.20;1.10;;;17.20;99.90;;;;;;5054066;28;20393;-57